createdAt,value
2018-06-19T00:05:04.181Z,79.09
2018-06-19T00:10:06.514Z,79.26
2018-06-19T00:15:15.786Z,78.82
2018-06-19T00:20:18.111Z,78.60
2018-06-19T00:25:20.554Z,78.64
2018-06-19T00:30:23.232Z,78.65
2018-06-19T00:35:27.362Z,78.51
2018-06-19T00:40:31.161Z,78.61
2018-06-19T00:45:35.554Z,77.85
2018-06-19T00:50:39.408Z,77.91
2018-06-19T00:55:41.558Z,78.01
2018-06-19T01:00:43.792Z,78.55
2018-06-19T01:05:45.956Z,78.17
2018-06-19T01:10:49.479Z,79.32
2018-06-19T01:15:53.812Z,79.06
2018-06-19T01:20:56.084Z,78.72
2018-06-19T01:25:58.235Z,79.20
2018-06-19T01:31:00.504Z,79.02
2018-06-19T01:36:02.686Z,79.40
2018-06-19T01:41:04.942Z,79.49
2018-06-19T01:46:07.109Z,79.08
2018-06-19T01:51:09.242Z,80.20
2018-06-19T01:56:11.429Z,80.25
2018-06-19T02:01:13.609Z,80.51
2018-06-19T02:06:15.737Z,80.66
2018-06-19T02:11:17.859Z,79.99
2018-06-19T02:16:19.989Z,80.41
2018-06-19T02:21:22.123Z,80.73
2018-06-19T02:26:24.291Z,80.83
2018-06-19T02:31:26.464Z,80.68
2018-06-19T02:36:28.623Z,81.66
2018-06-19T02:41:30.740Z,81.74
2018-06-19T02:46:32.872Z,81.16
2018-06-19T02:51:34.985Z,82.03
2018-06-19T02:56:37.164Z,81.70
2018-06-19T03:01:39.397Z,81.84
2018-06-19T03:06:41.525Z,81.60
2018-06-19T03:11:43.644Z,81.62
2018-06-19T03:16:45.797Z,81.34
2018-06-19T03:21:47.948Z,81.63
2018-06-19T03:26:50.081Z,81.60
2018-06-19T03:31:52.247Z,81.31
2018-06-19T03:36:54.405Z,81.08
2018-06-19T03:41:56.536Z,80.35
2018-06-19T03:46:58.696Z,80.31
2018-06-19T03:52:01.588Z,80.36
2018-06-19T03:57:03.799Z,80.61
2018-06-19T04:02:05.927Z,80.38
2018-06-19T04:12:17.617Z,80.82
2018-06-19T04:17:26.952Z,81.02
2018-06-19T04:22:29.424Z,81.04
2018-06-19T04:27:31.546Z,80.41
2018-06-19T04:32:33.733Z,80.53
2018-06-19T04:37:35.918Z,80.81
2018-06-19T04:42:38.042Z,80.40
2018-06-19T04:47:40.192Z,80.47
2018-06-19T04:52:42.369Z,80.01
2018-06-19T04:57:45.087Z,80.00
2018-06-19T05:02:47.223Z,78.79
2018-06-19T05:07:50.127Z,78.91
2018-06-19T05:12:52.300Z,79.09
2018-06-19T05:17:54.827Z,78.20
2018-06-19T05:22:56.998Z,78.47
2018-06-19T05:27:59.137Z,78.56
2018-06-19T05:33:01.343Z,78.99
2018-06-19T05:38:03.515Z,79.25
2018-06-19T05:43:05.703Z,78.01
2018-06-19T05:48:07.836Z,78.80
2018-06-19T05:53:10.000Z,78.93
2018-06-19T05:58:12.118Z,79.25
2018-06-19T06:03:14.667Z,79.24
2018-06-19T06:08:16.823Z,78.90
2018-06-19T06:13:19.090Z,78.39
2018-06-19T06:18:21.263Z,78.79
2018-06-19T06:23:23.410Z,78.36
2018-06-19T06:28:25.548Z,78.39
2018-06-19T06:33:27.756Z,78.61
2018-06-19T06:38:29.945Z,79.27
2018-06-19T06:43:32.806Z,78.16
2018-06-19T06:58:14.987Z,77.55
2018-06-19T07:03:17.187Z,77.99
2018-06-19T07:08:19.340Z,78.82
2018-06-19T07:13:21.501Z,78.85
2018-06-19T07:18:23.680Z,80.46
2018-06-19T07:23:25.870Z,80.97
2018-06-19T07:28:29.695Z,82.33
2018-06-19T07:33:31.891Z,82.18
2018-06-19T07:38:34.187Z,83.09
2018-06-19T07:43:36.351Z,83.02
2018-06-19T07:48:38.499Z,83.44
2018-06-19T07:53:40.647Z,83.63
2018-06-19T07:58:42.785Z,84.30
2018-06-19T08:03:44.976Z,84.76
2018-06-19T08:08:47.274Z,84.55
2018-06-19T08:13:49.454Z,83.29
2018-06-19T08:18:51.691Z,82.42
2018-06-19T08:23:53.804Z,83.33
2018-06-19T08:28:55.954Z,83.26
2018-06-19T08:33:58.115Z,84.03
2018-06-19T08:39:00.255Z,83.37
2018-06-19T08:44:02.626Z,82.77
2018-06-19T08:49:05.131Z,83.31
2018-06-19T08:54:07.303Z,83.15
2018-06-19T08:59:09.462Z,82.94
2018-06-19T09:04:11.648Z,82.32
2018-06-19T09:09:13.806Z,82.57
2018-06-19T09:14:15.954Z,83.23
2018-06-19T09:19:18.078Z,82.49
2018-06-19T09:24:20.234Z,82.66
2018-06-19T09:29:22.374Z,82.17
2018-06-19T09:34:24.690Z,82.81
2018-06-19T09:39:26.850Z,83.56
2018-06-19T09:44:28.994Z,83.54
2018-06-19T09:49:31.119Z,84.01
2018-06-19T09:54:34.115Z,81.84
2018-06-19T09:59:36.347Z,82.01
2018-06-19T10:04:38.835Z,81.62
2018-06-19T10:09:40.987Z,79.82
2018-06-19T10:14:43.164Z,78.42
2018-06-19T10:19:45.474Z,78.23
2018-06-19T10:24:47.662Z,79.45
2018-06-19T10:29:49.820Z,77.59
2018-06-19T10:34:52.065Z,78.60
2018-06-19T10:39:54.258Z,75.49
2018-06-19T10:44:56.439Z,73.29
2018-06-19T10:49:58.582Z,74.03
2018-06-19T10:55:00.781Z,71.52
2018-06-19T11:00:02.993Z,69.19
2018-06-19T11:05:05.580Z,65.08
2018-06-19T11:10:07.715Z,65.90
2018-06-19T11:15:09.881Z,66.94
2018-06-19T11:20:12.031Z,67.96
2018-06-19T11:25:14.172Z,63.54
2018-06-19T11:30:16.395Z,62.12
2018-06-19T11:35:18.687Z,59.94
2018-06-19T11:40:20.879Z,59.58
2018-06-19T11:45:23.060Z,60.50
2018-06-19T11:50:25.242Z,60.75
2018-06-19T11:55:27.418Z,60.25
2018-06-19T12:00:29.702Z,56.18
2018-06-19T12:05:31.851Z,56.92
2018-06-19T12:10:34.034Z,57.66
2018-06-19T12:15:36.195Z,59.26
2018-06-19T12:20:38.317Z,56.00
2018-06-19T12:25:40.508Z,53.25
2018-06-19T12:30:42.685Z,51.24
2018-06-19T12:35:44.919Z,49.38
2018-06-19T12:40:47.103Z,47.83
2018-06-19T12:45:49.271Z,45.36
2018-06-19T12:54:02.702Z,46.14
2018-06-19T12:59:04.864Z,41.30
2018-06-19T13:04:18.456Z,45.29
2018-06-19T13:09:20.595Z,39.91
2018-06-19T13:14:40.302Z,40.62
2018-06-19T13:19:53.797Z,41.58
2018-06-19T13:24:55.959Z,39.14
2018-06-19T13:30:10.582Z,38.67
2018-06-19T13:35:12.751Z,39.65
2018-06-19T13:41:25.931Z,40.34
2018-06-19T13:46:28.123Z,39.77
2018-06-19T13:51:30.304Z,39.98
2018-06-19T13:57:44.431Z,40.69
2018-06-19T14:02:46.724Z,42.10
2018-06-19T14:08:02.639Z,40.82
2018-06-19T14:13:04.795Z,39.63
2018-06-19T14:18:07.446Z,39.12
2018-06-19T14:23:09.870Z,37.94
2018-06-19T14:28:12.082Z,40.10
2018-06-19T14:33:14.316Z,36.54
2018-06-19T14:38:17.217Z,35.48
2018-06-19T14:43:19.429Z,35.96
2018-06-19T14:48:21.645Z,37.10
2018-06-19T14:53:23.796Z,37.27
2018-06-19T14:58:25.990Z,37.30
2018-06-19T15:03:28.146Z,37.67
2018-06-19T15:08:30.360Z,37.76
2018-06-19T15:13:32.558Z,36.60
2018-06-19T15:18:34.729Z,38.25
2018-06-19T15:23:36.880Z,37.06
2018-06-19T15:28:39.050Z,38.18
2018-06-19T15:33:41.244Z,37.12
2018-06-19T15:38:43.447Z,36.67
2018-06-19T15:43:45.704Z,37.18
2018-06-19T15:48:47.849Z,37.26
2018-06-19T15:53:50.147Z,37.73
2018-06-19T15:58:52.547Z,37.72
2018-06-19T16:03:54.728Z,37.84
2018-06-19T16:08:56.930Z,38.85
2018-06-19T16:13:59.112Z,39.65
2018-06-19T16:19:01.582Z,39.94
2018-06-19T16:24:03.761Z,40.41
2018-06-19T16:29:05.920Z,39.74
2018-06-19T16:34:08.094Z,39.28
2018-06-19T16:39:10.672Z,39.61
2018-06-19T16:44:12.928Z,39.08
2018-06-19T16:49:15.084Z,38.84
2018-06-19T16:54:17.274Z,39.39
2018-06-19T16:59:19.462Z,39.08
2018-06-19T17:04:21.627Z,40.11
2018-06-19T17:09:23.806Z,40.45
2018-06-19T17:14:26.020Z,40.66
2018-06-19T17:19:28.204Z,39.59
2018-06-19T17:24:30.411Z,41.08
2018-06-19T17:29:32.648Z,41.15
2018-06-19T17:34:34.796Z,40.21
2018-06-19T17:39:37.015Z,41.80
2018-06-19T17:44:39.269Z,41.12
2018-06-19T17:49:41.468Z,41.23
2018-06-19T17:54:43.676Z,41.94
2018-06-19T17:59:45.830Z,42.16
2018-06-19T18:04:48.005Z,42.17
2018-06-19T18:09:50.199Z,42.37
2018-06-19T18:14:52.388Z,43.17
2018-06-19T18:19:54.608Z,43.99
2018-06-19T18:24:56.790Z,45.00
2018-06-19T18:29:58.994Z,45.54
2018-06-19T18:35:01.164Z,46.43
2018-06-19T18:40:03.387Z,47.76
2018-06-19T18:45:05.606Z,49.23
2018-06-19T18:50:07.804Z,49.04
2018-06-19T18:55:10.105Z,49.67
2018-06-19T19:00:12.304Z,50.42
2018-06-19T19:05:14.585Z,50.88
2018-06-19T19:10:22.430Z,51.35
2018-06-19T19:15:30.428Z,52.12
2018-06-19T19:20:32.646Z,52.83
2018-06-19T19:25:34.871Z,52.15
2018-06-19T19:30:37.081Z,51.83
2018-06-19T19:35:39.315Z,51.04
2018-06-19T19:40:41.517Z,51.93
2018-06-19T19:45:43.739Z,52.54
2018-06-19T19:50:46.362Z,52.25
2018-06-19T19:55:54.583Z,51.75
2018-06-19T20:00:56.935Z,52.21
2018-06-19T20:05:59.414Z,52.23
2018-06-19T20:11:01.814Z,53.39
2018-06-19T20:16:04.318Z,54.56
2018-06-19T20:21:06.640Z,54.94
2018-06-19T20:26:08.993Z,55.48
2018-06-19T20:31:11.581Z,56.55
2018-06-19T20:36:14.134Z,56.57
2018-06-19T20:41:16.767Z,56.34
2018-06-19T20:46:19.300Z,56.99
2018-06-19T20:51:21.751Z,57.74
2018-06-19T20:56:23.997Z,57.88
2018-06-19T21:01:26.179Z,58.02
2018-06-19T21:06:28.380Z,57.59
2018-06-19T21:11:31.162Z,58.03
2018-06-19T21:16:33.363Z,58.08
2018-06-19T21:21:35.540Z,57.71
2018-06-19T21:26:37.933Z,58.48
2018-06-19T21:31:40.136Z,58.91
2018-06-19T21:36:42.365Z,59.82
2018-06-19T21:41:44.532Z,59.98
2018-06-19T21:46:46.741Z,60.15
2018-06-19T21:51:48.902Z,60.77
2018-06-19T21:56:51.079Z,60.61
2018-06-19T22:01:53.534Z,61.34
2018-06-19T22:06:55.730Z,61.52
2018-06-19T22:11:57.883Z,61.50
2018-06-19T22:17:00.036Z,62.03
2018-06-19T22:22:02.186Z,62.11
2018-06-19T22:27:04.339Z,62.34
2018-06-19T22:32:06.515Z,63.92
2018-06-19T22:37:08.728Z,63.71
2018-06-19T22:42:10.896Z,63.94
2018-06-19T22:47:13.198Z,63.45
2018-06-19T22:52:15.363Z,63.30
2018-06-19T22:57:17.496Z,63.70
2018-06-19T23:02:19.628Z,64.11
2018-06-19T23:07:21.759Z,63.46
2018-06-19T23:12:23.980Z,62.79
2018-06-19T23:17:26.137Z,63.81
2018-06-19T23:22:28.334Z,64.88
2018-06-19T23:27:30.466Z,64.87
2018-06-19T23:32:32.606Z,64.64
2018-06-19T23:37:34.874Z,64.94
2018-06-19T23:42:37.007Z,64.87
2018-06-19T23:47:39.168Z,64.36
2018-06-19T23:52:41.303Z,64.18
2018-06-19T23:57:43.418Z,64.79
